createdAt,value
2018-06-29T00:01:59.428Z,86.90
2018-06-29T00:07:02.338Z,86.90
2018-06-29T00:12:04.879Z,86.90
2018-06-29T00:17:07.438Z,86.80
2018-06-29T00:22:09.996Z,86.80
2018-06-29T00:27:12.549Z,86.70
2018-06-29T00:32:15.096Z,87.00
2018-06-29T00:37:17.648Z,87.10
2018-06-29T00:42:20.207Z,86.70
2018-06-29T00:47:22.748Z,86.70
2018-06-29T00:52:26.071Z,86.80
2018-06-29T00:57:29.397Z,86.90
2018-06-29T01:02:33.130Z,86.90
2018-06-29T01:07:37.044Z,86.80
2018-06-29T01:17:57.209Z,87.10
2018-06-29T01:23:00.236Z,87.00
2018-06-29T01:28:03.146Z,87.00
2018-06-29T01:33:05.919Z,87.20
2018-06-29T01:38:08.789Z,87.10
2018-06-29T01:43:12.128Z,87.10
2018-06-29T01:48:16.447Z,87.20
2018-06-29T01:53:19.483Z,87.10
2018-06-29T01:58:22.430Z,87.50
2018-06-29T02:03:25.384Z,87.30
2018-06-29T02:08:31.573Z,87.40
2018-06-29T02:13:34.290Z,87.60
2018-06-29T02:18:37.195Z,87.40
2018-06-29T02:23:40.202Z,87.50
2018-06-29T02:28:43.133Z,87.10
2018-06-29T02:33:46.021Z,87.10
2018-06-29T02:38:50.675Z,87.10
2018-06-29T02:43:54.014Z,87.40
2018-06-29T02:48:56.858Z,87.50
2018-06-29T02:54:02.091Z,87.30
2018-06-29T02:59:05.058Z,87.70
2018-06-29T03:04:08.523Z,87.40
2018-06-29T03:09:11.219Z,87.50
2018-06-29T03:14:14.529Z,87.70
2018-06-29T03:19:17.521Z,87.70
2018-06-29T03:24:20.062Z,87.70
2018-06-29T03:29:22.579Z,88.70
2018-06-29T03:34:25.090Z,87.90
2018-06-29T03:39:27.604Z,87.50
2018-06-29T03:44:30.124Z,87.70
2018-06-29T03:49:32.697Z,87.80
2018-06-29T03:54:35.537Z,88.10
2018-06-29T03:59:38.242Z,87.70
2018-06-29T04:04:42.345Z,88.10
2018-06-29T04:09:45.138Z,88.10
2018-06-29T04:14:48.553Z,88.00
2018-06-29T04:19:51.566Z,88.60
2018-06-29T04:24:54.798Z,88.40
2018-06-29T04:29:57.761Z,88.20
2018-06-29T04:35:00.736Z,88.30
2018-06-29T04:40:03.752Z,88.10
2018-06-29T04:45:06.475Z,88.70
2018-06-29T04:50:09.240Z,88.70
2018-06-29T04:55:13.006Z,87.80
2018-06-29T05:00:16.025Z,87.70
2018-06-29T05:05:18.914Z,87.70
2018-06-29T05:10:21.845Z,88.00
2018-06-29T05:15:24.972Z,88.20
2018-06-29T05:20:27.900Z,87.30
2018-06-29T05:25:30.836Z,87.30
2018-06-29T05:30:34.354Z,87.70
2018-06-29T05:35:36.868Z,87.80
2018-06-29T05:40:39.404Z,87.30
2018-06-29T05:45:44.366Z,87.70
2018-06-29T05:50:47.371Z,88.10
2018-06-29T05:55:50.398Z,89.20
2018-06-29T06:00:52.952Z,89.30
2018-06-29T06:05:55.468Z,89.50
2018-06-29T06:10:57.988Z,89.70
2018-06-29T06:16:01.293Z,89.50
2018-06-29T06:21:03.775Z,89.50
2018-06-29T06:26:06.320Z,89.70
2018-06-29T06:31:08.825Z,89.50
2018-06-29T06:36:12.113Z,89.80
2018-06-29T06:41:14.639Z,89.70
2018-06-29T06:46:17.159Z,89.60
2018-06-29T06:51:19.672Z,89.40
2018-06-29T06:56:22.188Z,88.40
2018-06-29T07:01:24.704Z,88.00
2018-06-29T07:06:27.224Z,88.60
2018-06-29T07:11:30.508Z,90.00
2018-06-29T07:16:33.040Z,90.00
2018-06-29T07:21:35.564Z,91.00
2018-06-29T07:26:38.067Z,91.20
2018-06-29T07:31:40.579Z,90.90
2018-06-29T07:36:43.096Z,90.70
2018-06-29T07:41:45.616Z,90.20
2018-06-29T07:46:48.132Z,89.70
2018-06-29T07:51:51.415Z,89.00
2018-06-29T07:56:53.940Z,88.80
2018-06-29T08:01:58.523Z,88.60
2018-06-29T08:07:01.086Z,88.50
2018-06-29T08:12:03.600Z,88.00
2018-06-29T08:17:07.579Z,87.70
2018-06-29T08:22:11.999Z,89.10
2018-06-29T08:27:17.481Z,89.40
2018-06-29T08:32:20.591Z,90.00
2018-06-29T08:37:23.143Z,90.00
2018-06-29T08:42:26.435Z,89.30
2018-06-29T08:47:28.951Z,89.30
2018-06-29T08:52:32.236Z,87.20
2018-06-29T08:57:34.751Z,87.10
2018-06-29T09:02:37.276Z,85.70
2018-06-29T09:07:39.809Z,85.20
2018-06-29T09:12:42.332Z,82.70
2018-06-29T09:17:44.852Z,80.50
2018-06-29T09:22:47.390Z,80.40
2018-06-29T09:27:49.916Z,79.50
2018-06-29T09:37:52.045Z,78.90
2018-06-29T09:42:54.568Z,79.10
2018-06-29T09:47:57.150Z,78.60
2018-06-29T09:52:59.607Z,78.60
2018-06-29T09:58:02.132Z,78.70
2018-06-29T10:03:07.188Z,78.40
2018-06-29T10:08:11.640Z,78.30
2018-06-29T10:13:16.118Z,78.10
2018-06-29T10:18:19.161Z,78.00
2018-06-29T10:23:22.037Z,78.40
2018-06-29T10:28:25.081Z,78.90
2018-06-29T10:33:27.649Z,79.30
2018-06-29T10:38:30.181Z,79.80
2018-06-29T10:43:32.707Z,79.00
2018-06-29T10:48:35.251Z,78.50
2018-06-29T10:53:37.776Z,77.80
2018-06-29T10:58:40.342Z,77.20
2018-06-29T11:03:42.844Z,77.00
2018-06-29T11:08:45.360Z,77.20
2018-06-29T11:13:47.884Z,76.90
2018-06-29T11:18:50.416Z,76.40
2018-06-29T11:23:52.944Z,76.30
2018-06-29T11:28:55.464Z,75.70
2018-06-29T11:33:57.988Z,74.60
2018-06-29T11:39:00.503Z,73.00
2018-06-29T11:44:03.041Z,69.60
2018-06-29T11:49:05.569Z,69.00
2018-06-29T11:54:08.087Z,70.20
2018-06-29T11:59:10.631Z,69.30
2018-06-29T12:04:13.147Z,70.20
2018-06-29T12:09:15.672Z,70.80
2018-06-29T12:14:18.224Z,68.90
2018-06-29T12:19:20.815Z,69.40
2018-06-29T12:24:25.667Z,69.00
2018-06-29T12:29:28.980Z,68.10
2018-06-29T12:34:32.295Z,67.40
2018-06-29T12:39:34.900Z,67.30
2018-06-29T12:44:38.182Z,64.80
2018-06-29T12:49:40.708Z,64.70
2018-06-29T12:54:43.235Z,65.30
2018-06-29T12:59:45.798Z,64.20
2018-06-29T13:04:48.328Z,65.20
2018-06-29T13:09:50.902Z,64.30
2018-06-29T13:14:53.761Z,63.20
2018-06-29T13:19:56.469Z,63.80
2018-06-29T13:24:59.427Z,63.30
2018-06-29T13:30:01.960Z,62.00
2018-06-29T13:35:05.882Z,63.30
2018-06-29T13:40:09.461Z,60.40
2018-06-29T13:45:12.062Z,60.40
2018-06-29T13:50:14.638Z,60.90
2018-06-29T13:55:17.229Z,60.50
2018-06-29T14:00:19.888Z,59.60
2018-06-29T14:05:22.526Z,59.30
2018-06-29T14:10:25.460Z,57.70
2018-06-29T14:15:28.021Z,58.10
2018-06-29T14:20:30.646Z,58.20
2018-06-29T14:25:33.634Z,57.70
2018-06-29T14:30:36.667Z,57.60
2018-06-29T14:35:39.279Z,57.80
2018-06-29T14:40:41.918Z,57.40
2018-06-29T14:45:44.740Z,57.80
2018-06-29T14:50:47.619Z,59.30
2018-06-29T14:55:52.002Z,57.00
2018-06-29T15:00:54.909Z,57.00
2018-06-29T15:05:57.831Z,56.90
2018-06-29T15:11:00.408Z,57.60
2018-06-29T15:16:03.337Z,57.10
2018-06-29T15:21:06.241Z,57.60
2018-06-29T15:26:09.064Z,56.90
2018-06-29T15:31:13.307Z,58.10
2018-06-29T15:36:16.239Z,60.40
2018-06-29T15:41:22.324Z,57.80
2018-06-29T15:46:25.484Z,57.70
2018-06-29T15:51:29.655Z,57.60
2018-06-29T15:56:32.239Z,58.00
2018-06-29T16:01:34.858Z,58.30
2018-06-29T16:06:38.164Z,57.90
2018-06-29T16:11:40.685Z,57.90
2018-06-29T16:16:43.204Z,57.30
2018-06-29T16:21:45.732Z,57.90
2018-06-29T16:26:48.253Z,56.90
2018-06-29T16:31:55.111Z,57.70
2018-06-29T16:36:57.668Z,57.10
2018-06-29T16:42:00.190Z,57.60
2018-06-29T16:47:02.719Z,56.80
2018-06-29T16:52:05.248Z,58.40
2018-06-29T16:57:07.771Z,56.60
2018-06-29T17:02:11.484Z,57.60
2018-06-29T17:07:16.846Z,57.30
2018-06-29T17:12:20.994Z,58.10
2018-06-29T17:17:24.431Z,57.40
2018-06-29T17:22:27.043Z,57.40
2018-06-29T17:27:30.509Z,57.50
2018-06-29T17:32:34.354Z,58.30
2018-06-29T17:37:42.046Z,58.30
2018-06-29T17:42:46.586Z,58.30
2018-06-29T17:47:50.422Z,57.90
2018-06-29T17:52:53.649Z,57.20
2018-06-29T17:57:57.955Z,58.00
2018-06-29T18:03:01.258Z,58.50
2018-06-29T18:08:04.116Z,58.20
2018-06-29T18:13:06.851Z,58.90
2018-06-29T18:18:09.347Z,59.60
2018-06-29T18:23:12.043Z,60.00
2018-06-29T18:28:15.368Z,59.40
2018-06-29T18:33:18.726Z,59.60
2018-06-29T18:38:21.627Z,59.90
2018-06-29T18:43:24.896Z,59.70
2018-06-29T18:48:28.168Z,60.50
2018-06-29T18:53:32.084Z,60.70
2018-06-29T18:58:34.836Z,61.30
2018-06-29T19:03:37.455Z,61.20
2018-06-29T19:08:40.020Z,61.80
2018-06-29T19:13:42.543Z,62.10
2018-06-29T19:18:45.055Z,62.60
2018-06-29T19:23:47.576Z,63.20
2018-06-29T19:28:50.100Z,63.80
2018-06-29T19:33:52.619Z,64.20
2018-06-29T19:38:55.909Z,66.10
2018-06-29T19:43:58.460Z,66.00
2018-06-29T19:49:01.752Z,67.20
2018-06-29T19:54:04.284Z,67.10
2018-06-29T19:59:06.799Z,67.20
2018-06-29T20:04:09.318Z,67.40
2018-06-29T20:09:11.840Z,67.70
2018-06-29T20:14:15.123Z,68.30
2018-06-29T20:19:17.631Z,68.30
2018-06-29T20:24:20.159Z,68.60
2018-06-29T20:29:23.440Z,69.10
2018-06-29T20:34:26.012Z,69.00
2018-06-29T20:39:29.320Z,69.30
2018-06-29T20:44:31.920Z,69.60
2018-06-29T20:49:34.537Z,69.60
2018-06-29T20:54:37.054Z,69.80
2018-06-29T20:59:39.569Z,70.00
2018-06-29T21:04:42.113Z,70.30
2018-06-29T21:09:45.379Z,71.00
2018-06-29T21:14:47.897Z,71.00
2018-06-29T21:19:50.411Z,71.60
2018-06-29T21:24:52.927Z,71.60
2018-06-29T21:29:55.443Z,71.90
2018-06-29T21:34:57.956Z,72.00
2018-06-29T21:40:00.939Z,72.30
2018-06-29T21:45:05.153Z,72.70
2018-06-29T21:50:08.576Z,72.60
2018-06-29T21:55:11.164Z,72.40
2018-06-29T22:00:14.827Z,72.80
2018-06-29T22:05:17.407Z,72.90
2018-06-29T22:10:20.828Z,72.70
2018-06-29T22:15:25.388Z,72.90
2018-06-29T22:20:28.339Z,72.90
2018-06-29T22:25:32.057Z,73.30
2018-06-29T22:30:34.596Z,73.20
2018-06-29T22:35:37.108Z,73.40
2018-06-29T22:40:42.023Z,73.40
2018-06-29T22:45:46.552Z,73.60
2018-06-29T22:50:50.102Z,73.80
2018-06-29T22:55:52.991Z,73.80
2018-06-29T23:00:56.405Z,74.10
2018-06-29T23:05:59.491Z,74.20
2018-06-29T23:11:02.486Z,74.40
2018-06-29T23:16:05.446Z,74.40
2018-06-29T23:21:08.302Z,74.60
2018-06-29T23:26:11.907Z,74.70
2018-06-29T23:31:14.432Z,74.80
2018-06-29T23:36:16.996Z,74.90
2018-06-29T23:41:19.599Z,75.00
2018-06-29T23:46:22.504Z,75.10
2018-06-29T23:51:25.019Z,75.40
2018-06-29T23:56:27.567Z,75.40
